sensor_id;sensor_type;location;lat;lon;timestamp;P1;durP1;ratioP1;P2;durP2;ratioP2
67595;SDS011;54410;48.694;8.934;2022-08-01T00:01:03;4.30;;;2.42;;
67595;SDS011;54410;48.694;8.934;2022-08-01T00:03:28;3.67;;;2.25;;
67595;SDS011;54410;48.694;8.934;2022-08-01T00:05:54;3.92;;;2.45;;
67595;SDS011;54410;48.694;8.934;2022-08-01T00:08:20;3.47;;;2.00;;
67595;SDS011;54410;48.694;8.934;2022-08-01T00:10:47;2.40;;;1.90;;
67595;SDS011;54410;48.694;8.934;2022-08-01T00:13:13;2.15;;;2.05;;
67595;SDS011;54410;48.694;8.934;2022-08-01T00:15:39;1.90;;;1.80;;
67595;SDS011;54410;48.694;8.934;2022-08-01T00:18:05;2.75;;;2.03;;
67595;SDS011;54410;48.694;8.934;2022-08-01T00:20:31;1.90;;;1.80;;
67595;SDS011;54410;48.694;8.934;2022-08-01T00:22:57;5.93;;;2.70;;
67595;SDS011;54410;48.694;8.934;2022-08-01T00:25:23;2.35;;;2.13;;
67595;SDS011;54410;48.694;8.934;2022-08-01T00:27:49;2.63;;;2.20;;
67595;SDS011;54410;48.694;8.934;2022-08-01T00:30:15;2.40;;;2.20;;
67595;SDS011;54410;48.694;8.934;2022-08-01T00:32:44;3.88;;;2.42;;
67595;SDS011;54410;48.694;8.934;2022-08-01T00:35:10;2.58;;;2.30;;
67595;SDS011;54410;48.694;8.934;2022-08-01T00:37:36;3.13;;;2.38;;
67595;SDS011;54410;48.694;8.934;2022-08-01T00:40:02;3.25;;;2.70;;
67595;SDS011;54410;48.694;8.934;2022-08-01T00:42:29;2.88;;;2.45;;
67595;SDS011;54410;48.694;8.934;2022-08-01T00:44:54;3.03;;;2.55;;
67595;SDS011;54410;48.694;8.934;2022-08-01T00:47:20;3.13;;;2.60;;
67595;SDS011;54410;48.694;8.934;2022-08-01T00:49:46;2.60;;;2.38;;
67595;SDS011;54410;48.694;8.934;2022-08-01T00:52:12;3.20;;;2.50;;
67595;SDS011;54410;48.694;8.934;2022-08-01T00:54:38;3.45;;;2.45;;
67595;SDS011;54410;48.694;8.934;2022-08-01T00:57:04;4.18;;;2.50;;
67595;SDS011;54410;48.694;8.934;2022-08-01T00:59:30;3.05;;;2.40;;
67595;SDS011;54410;48.694;8.934;2022-08-01T01:01:56;3.28;;;2.40;;
67595;SDS011;54410;48.694;8.934;2022-08-01T01:04:22;4.38;;;2.72;;
67595;SDS011;54410;48.694;8.934;2022-08-01T01:14:44;2.60;;;2.40;;
67595;SDS011;54410;48.694;8.934;2022-08-01T01:17:11;4.07;;;2.45;;
67595;SDS011;54410;48.694;8.934;2022-08-01T01:19:41;3.58;;;2.70;;
67595;SDS011;54410;48.694;8.934;2022-08-01T01:27:29;3.83;;;2.55;;
67595;SDS011;54410;48.694;8.934;2022-08-01T01:30:02;3.92;;;2.97;;
67595;SDS011;54410;48.694;8.934;2022-08-01T01:32:30;3.10;;;2.80;;
67595;SDS011;54410;48.694;8.934;2022-08-01T01:35:02;2.90;;;2.70;;
67595;SDS011;54410;48.694;8.934;2022-08-01T01:37:30;3.00;;;2.80;;
67595;SDS011;54410;48.694;8.934;2022-08-01T01:39:58;3.30;;;2.88;;
67595;SDS011;54410;48.694;8.934;2022-08-01T01:42:25;3.90;;;2.60;;
67595;SDS011;54410;48.694;8.934;2022-08-01T01:44:52;2.70;;;2.50;;
67595;SDS011;54410;48.694;8.934;2022-08-01T01:47:18;3.30;;;2.90;;
67595;SDS011;54410;48.694;8.934;2022-08-01T01:49:46;4.47;;;2.88;;
67595;SDS011;54410;48.694;8.934;2022-08-01T01:52:13;3.22;;;2.78;;
67595;SDS011;54410;48.694;8.934;2022-08-01T01:54:42;4.30;;;2.90;;
67595;SDS011;54410;48.694;8.934;2022-08-01T01:57:12;2.90;;;2.70;;
67595;SDS011;54410;48.694;8.934;2022-08-01T01:59:38;3.45;;;2.83;;
67595;SDS011;54410;48.694;8.934;2022-08-01T02:02:05;4.10;;;3.00;;
67595;SDS011;54410;48.694;8.934;2022-08-01T02:04:32;3.50;;;3.20;;
67595;SDS011;54410;48.694;8.934;2022-08-01T02:07:01;4.15;;;3.38;;
67595;SDS011;54410;48.694;8.934;2022-08-01T02:09:27;4.53;;;3.10;;
67595;SDS011;54410;48.694;8.934;2022-08-01T02:11:53;3.55;;;3.25;;
67595;SDS011;54410;48.694;8.934;2022-08-01T02:14:20;3.25;;;2.95;;
67595;SDS011;54410;48.694;8.934;2022-08-01T02:16:48;3.47;;;3.17;;
67595;SDS011;54410;48.694;8.934;2022-08-01T02:19:15;4.13;;;3.13;;
67595;SDS011;54410;48.694;8.934;2022-08-01T02:26:39;3.95;;;3.40;;
67595;SDS011;54410;48.694;8.934;2022-08-01T02:29:09;3.85;;;3.35;;
67595;SDS011;54410;48.694;8.934;2022-08-01T02:31:38;3.90;;;3.03;;
67595;SDS011;54410;48.694;8.934;2022-08-01T02:34:06;4.45;;;3.65;;
67595;SDS011;54410;48.694;8.934;2022-08-01T02:36:33;3.33;;;3.05;;
67595;SDS011;54410;48.694;8.934;2022-08-01T02:39:00;3.65;;;3.35;;
67595;SDS011;54410;48.694;8.934;2022-08-01T02:41:27;4.15;;;3.25;;
67595;SDS011;54410;48.694;8.934;2022-08-01T02:43:56;3.90;;;3.53;;
67595;SDS011;54410;48.694;8.934;2022-08-01T02:46:26;3.85;;;2.90;;
67595;SDS011;54410;48.694;8.934;2022-08-01T02:49:00;3.70;;;3.38;;
67595;SDS011;54410;48.694;8.934;2022-08-01T02:51:26;6.68;;;3.30;;
67595;SDS011;54410;48.694;8.934;2022-08-01T02:53:53;3.65;;;3.35;;
67595;SDS011;54410;48.694;8.934;2022-08-01T02:56:19;3.70;;;3.40;;
67595;SDS011;54410;48.694;8.934;2022-08-01T02:58:46;4.32;;;3.55;;
67595;SDS011;54410;48.694;8.934;2022-08-01T03:01:14;3.55;;;3.28;;
67595;SDS011;54410;48.694;8.934;2022-08-01T03:03:40;3.92;;;3.58;;
67595;SDS011;54410;48.694;8.934;2022-08-01T03:06:07;3.75;;;3.45;;
67595;SDS011;54410;48.694;8.934;2022-08-01T03:08:33;5.38;;;3.50;;
67595;SDS011;54410;48.694;8.934;2022-08-01T03:11:00;3.78;;;3.35;;
67595;SDS011;54410;48.694;8.934;2022-08-01T03:13:27;4.10;;;3.70;;
67595;SDS011;54410;48.694;8.934;2022-08-01T03:15:55;4.18;;;3.67;;
67595;SDS011;54410;48.694;8.934;2022-08-01T03:18:21;3.85;;;3.50;;
67595;SDS011;54410;48.694;8.934;2022-08-01T03:20:50;3.88;;;3.58;;
67595;SDS011;54410;48.694;8.934;2022-08-01T03:23:17;6.35;;;3.88;;
67595;SDS011;54410;48.694;8.934;2022-08-01T03:25:44;3.67;;;3.38;;
67595;SDS011;54410;48.694;8.934;2022-08-01T03:28:11;4.50;;;3.70;;
67595;SDS011;54410;48.694;8.934;2022-08-01T03:30:38;3.65;;;3.35;;
67595;SDS011;54410;48.694;8.934;2022-08-01T03:33:05;3.83;;;3.38;;
67595;SDS011;54410;48.694;8.934;2022-08-01T03:35:36;4.32;;;3.92;;
67595;SDS011;54410;48.694;8.934;2022-08-01T03:38:05;4.60;;;3.85;;
67595;SDS011;54410;48.694;8.934;2022-08-01T03:40:38;4.30;;;3.53;;
67595;SDS011;54410;48.694;8.934;2022-08-01T03:43:07;3.75;;;3.45;;
67595;SDS011;54410;48.694;8.934;2022-08-01T03:45:38;3.88;;;3.58;;
67595;SDS011;54410;48.694;8.934;2022-08-01T03:48:08;3.80;;;3.50;;
67595;SDS011;54410;48.694;8.934;2022-08-01T03:50:35;3.97;;;3.67;;
67595;SDS011;54410;48.694;8.934;2022-08-01T03:53:02;4.13;;;3.63;;
67595;SDS011;54410;48.694;8.934;2022-08-01T03:55:29;4.07;;;3.67;;
67595;SDS011;54410;48.694;8.934;2022-08-01T03:57:56;4.53;;;3.75;;
67595;SDS011;54410;48.694;8.934;2022-08-01T04:00:23;5.40;;;3.70;;
67595;SDS011;54410;48.694;8.934;2022-08-01T04:02:51;4.28;;;3.55;;
67595;SDS011;54410;48.694;8.934;2022-08-01T04:05:17;7.70;;;3.72;;
67595;SDS011;54410;48.694;8.934;2022-08-01T04:07:47;4.35;;;3.58;;
67595;SDS011;54410;48.694;8.934;2022-08-01T04:10:20;3.60;;;3.33;;
67595;SDS011;54410;48.694;8.934;2022-08-01T04:12:46;5.85;;;3.90;;
67595;SDS011;54410;48.694;8.934;2022-08-01T04:15:12;4.82;;;4.03;;
67595;SDS011;54410;48.694;8.934;2022-08-01T04:17:39;3.88;;;3.58;;
67595;SDS011;54410;48.694;8.934;2022-08-01T04:20:05;3.75;;;3.45;;
67595;SDS011;54410;48.694;8.934;2022-08-01T04:22:31;4.10;;;3.70;;
67595;SDS011;54410;48.694;8.934;2022-08-01T04:24:57;3.88;;;3.53;;
67595;SDS011;54410;48.694;8.934;2022-08-01T04:27:26;3.78;;;3.40;;
67595;SDS011;54410;48.694;8.934;2022-08-01T04:29:54;3.88;;;3.42;;
67595;SDS011;54410;48.694;8.934;2022-08-01T04:32:22;3.72;;;3.42;;
67595;SDS011;54410;48.694;8.934;2022-08-01T04:34:49;3.65;;;3.17;;
67595;SDS011;54410;48.694;8.934;2022-08-01T04:37:14;3.25;;;2.97;;
67595;SDS011;54410;48.694;8.934;2022-08-01T04:39:42;4.13;;;2.80;;
67595;SDS011;54410;48.694;8.934;2022-08-01T04:42:09;3.15;;;2.90;;
67595;SDS011;54410;48.694;8.934;2022-08-01T04:44:35;2.70;;;2.40;;
67595;SDS011;54410;48.694;8.934;2022-08-01T04:47:02;2.72;;;2.53;;
67595;SDS011;54410;48.694;8.934;2022-08-01T04:49:33;3.70;;;2.40;;
67595;SDS011;54410;48.694;8.934;2022-08-01T04:51:59;3.22;;;2.28;;
67595;SDS011;54410;48.694;8.934;2022-08-01T04:54:29;2.80;;;2.60;;
67595;SDS011;54410;48.694;8.934;2022-08-01T04:56:58;3.83;;;2.45;;
67595;SDS011;54410;48.694;8.934;2022-08-01T04:59:27;3.25;;;2.60;;
67595;SDS011;54410;48.694;8.934;2022-08-01T05:02:08;2.75;;;2.55;;
67595;SDS011;54410;48.694;8.934;2022-08-01T05:04:36;2.75;;;2.55;;
67595;SDS011;54410;48.694;8.934;2022-08-01T05:07:02;3.50;;;2.90;;
67595;SDS011;54410;48.694;8.934;2022-08-01T05:09:29;3.22;;;2.92;;
67595;SDS011;54410;48.694;8.934;2022-08-01T05:11:55;4.40;;;3.22;;
67595;SDS011;54410;48.694;8.934;2022-08-01T05:14:23;3.95;;;3.00;;
67595;SDS011;54410;48.694;8.934;2022-08-01T05:16:52;3.47;;;3.05;;
67595;SDS011;54410;48.694;8.934;2022-08-01T05:19:18;4.18;;;2.80;;
67595;SDS011;54410;48.694;8.934;2022-08-01T05:21:44;5.85;;;2.78;;
67595;SDS011;54410;48.694;8.934;2022-08-01T05:24:09;3.72;;;2.50;;
67595;SDS011;54410;48.694;8.934;2022-08-01T05:26:35;2.60;;;2.40;;
67595;SDS011;54410;48.694;8.934;2022-08-01T05:29:01;4.68;;;2.65;;
67595;SDS011;54410;48.694;8.934;2022-08-01T05:31:26;7.88;;;2.30;;
67595;SDS011;54410;48.694;8.934;2022-08-01T05:33:53;4.40;;;2.22;;
67595;SDS011;54410;48.694;8.934;2022-08-01T05:36:18;3.17;;;2.20;;
67595;SDS011;54410;48.694;8.934;2022-08-01T05:38:44;8.32;;;2.47;;
67595;SDS011;54410;48.694;8.934;2022-08-01T05:41:10;16.35;;;2.97;;
67595;SDS011;54410;48.694;8.934;2022-08-01T05:43:36;16.58;;;3.05;;
67595;SDS011;54410;48.694;8.934;2022-08-01T05:46:01;5.57;;;2.40;;
67595;SDS011;54410;48.694;8.934;2022-08-01T05:48:27;7.78;;;2.40;;
67595;SDS011;54410;48.694;8.934;2022-08-01T05:50:53;6.43;;;2.03;;
67595;SDS011;54410;48.694;8.934;2022-08-01T05:53:19;3.42;;;1.88;;
67595;SDS011;54410;48.694;8.934;2022-08-01T05:55:44;3.70;;;1.90;;
67595;SDS011;54410;48.694;8.934;2022-08-01T05:58:10;2.65;;;1.40;;
67595;SDS011;54410;48.694;8.934;2022-08-01T06:00:35;4.50;;;1.80;;
67595;SDS011;54410;48.694;8.934;2022-08-01T06:03:01;2.40;;;1.60;;
67595;SDS011;54410;48.694;8.934;2022-08-01T06:05:26;4.40;;;1.58;;
67595;SDS011;54410;48.694;8.934;2022-08-01T06:07:52;1.98;;;1.88;;
67595;SDS011;54410;48.694;8.934;2022-08-01T06:10:18;2.17;;;1.60;;
67595;SDS011;54410;48.694;8.934;2022-08-01T06:12:44;3.60;;;1.75;;
67595;SDS011;54410;48.694;8.934;2022-08-01T06:15:10;4.63;;;2.17;;
67595;SDS011;54410;48.694;8.934;2022-08-01T06:17:36;2.58;;;1.50;;
67595;SDS011;54410;48.694;8.934;2022-08-01T06:20:02;4.93;;;1.50;;
67595;SDS011;54410;48.694;8.934;2022-08-01T06:22:28;4.20;;;1.65;;
67595;SDS011;54410;48.694;8.934;2022-08-01T06:24:54;5.22;;;1.65;;
67595;SDS011;54410;48.694;8.934;2022-08-01T06:27:19;6.43;;;1.40;;
67595;SDS011;54410;48.694;8.934;2022-08-01T06:29:45;3.90;;;1.20;;
67595;SDS011;54410;48.694;8.934;2022-08-01T06:32:11;1.52;;;1.10;;
67595;SDS011;54410;48.694;8.934;2022-08-01T06:34:36;3.15;;;1.08;;
67595;SDS011;54410;48.694;8.934;2022-08-01T06:37:02;1.17;;;0.90;;
67595;SDS011;54410;48.694;8.934;2022-08-01T06:39:28;1.50;;;1.00;;
67595;SDS011;54410;48.694;8.934;2022-08-01T06:41:53;2.92;;;1.20;;
67595;SDS011;54410;48.694;8.934;2022-08-01T06:44:19;1.73;;;1.20;;
67595;SDS011;54410;48.694;8.934;2022-08-01T06:46:44;0.90;;;0.90;;
67595;SDS011;54410;48.694;8.934;2022-08-01T06:49:10;1.17;;;0.90;;
67595;SDS011;54410;48.694;8.934;2022-08-01T06:51:36;2.67;;;0.82;;
67595;SDS011;54410;48.694;8.934;2022-08-01T06:54:01;2.17;;;1.10;;
67595;SDS011;54410;48.694;8.934;2022-08-01T06:56:27;3.53;;;0.93;;
67595;SDS011;54410;48.694;8.934;2022-08-01T06:58:53;1.30;;;0.98;;
67595;SDS011;54410;48.694;8.934;2022-08-01T07:01:21;1.27;;;1.10;;
67595;SDS011;54410;48.694;8.934;2022-08-01T07:03:46;1.20;;;1.10;;
67595;SDS011;54410;48.694;8.934;2022-08-01T07:06:12;1.98;;;1.02;;
67595;SDS011;54410;48.694;8.934;2022-08-01T07:08:39;1.83;;;1.00;;
67595;SDS011;54410;48.694;8.934;2022-08-01T07:11:05;1.63;;;0.90;;
67595;SDS011;54410;48.694;8.934;2022-08-01T07:13:31;1.63;;;1.00;;
67595;SDS011;54410;48.694;8.934;2022-08-01T07:15:57;1.75;;;1.05;;
67595;SDS011;54410;48.694;8.934;2022-08-01T07:18:23;2.08;;;1.10;;
67595;SDS011;54410;48.694;8.934;2022-08-01T07:20:49;1.25;;;0.90;;
67595;SDS011;54410;48.694;8.934;2022-08-01T07:23:14;2.00;;;0.88;;
67595;SDS011;54410;48.694;8.934;2022-08-01T07:25:40;0.93;;;0.93;;
67595;SDS011;54410;48.694;8.934;2022-08-01T07:28:06;1.30;;;1.05;;
67595;SDS011;54410;48.694;8.934;2022-08-01T07:30:32;1.30;;;1.00;;
67595;SDS011;54410;48.694;8.934;2022-08-01T07:32:58;0.68;;;0.68;;
67595;SDS011;54410;48.694;8.934;2022-08-01T07:35:23;0.80;;;0.80;;
67595;SDS011;54410;48.694;8.934;2022-08-01T07:37:49;1.48;;;0.80;;
67595;SDS011;54410;48.694;8.934;2022-08-01T07:40:15;0.73;;;0.73;;
67595;SDS011;54410;48.694;8.934;2022-08-01T07:42:44;1.17;;;0.95;;
67595;SDS011;54410;48.694;8.934;2022-08-01T07:45:11;1.05;;;0.95;;
67595;SDS011;54410;48.694;8.934;2022-08-01T07:47:37;2.90;;;1.00;;
67595;SDS011;54410;48.694;8.934;2022-08-01T07:50:03;1.48;;;0.95;;
67595;SDS011;54410;48.694;8.934;2022-08-01T07:52:30;1.23;;;1.13;;
67595;SDS011;54410;48.694;8.934;2022-08-01T07:54:56;1.15;;;1.05;;
67595;SDS011;54410;48.694;8.934;2022-08-01T07:57:22;1.33;;;1.20;;
67595;SDS011;54410;48.694;8.934;2022-08-01T07:59:49;1.52;;;1.38;;
67595;SDS011;54410;48.694;8.934;2022-08-01T08:02:14;1.98;;;1.48;;
67595;SDS011;54410;48.694;8.934;2022-08-01T08:04:40;2.10;;;1.50;;
67595;SDS011;54410;48.694;8.934;2022-08-01T08:07:06;1.48;;;1.33;;
67595;SDS011;54410;48.694;8.934;2022-08-01T08:09:32;2.28;;;1.55;;
67595;SDS011;54410;48.694;8.934;2022-08-01T08:11:58;1.73;;;1.50;;
67595;SDS011;54410;48.694;8.934;2022-08-01T08:14:23;2.42;;;1.95;;
67595;SDS011;54410;48.694;8.934;2022-08-01T08:16:49;1.75;;;1.63;;
67595;SDS011;54410;48.694;8.934;2022-08-01T08:19:15;2.30;;;1.85;;
67595;SDS011;54410;48.694;8.934;2022-08-01T08:21:41;3.50;;;2.30;;
67595;SDS011;54410;48.694;8.934;2022-08-01T08:24:07;3.38;;;1.83;;
67595;SDS011;54410;48.694;8.934;2022-08-01T08:26:46;3.25;;;1.90;;
67595;SDS011;54410;48.694;8.934;2022-08-01T08:29:12;2.38;;;2.17;;
67595;SDS011;54410;48.694;8.934;2022-08-01T08:31:38;2.50;;;2.30;;
67595;SDS011;54410;48.694;8.934;2022-08-01T08:34:04;3.17;;;2.10;;
67595;SDS011;54410;48.694;8.934;2022-08-01T08:36:30;2.83;;;2.08;;
67595;SDS011;54410;48.694;8.934;2022-08-01T08:38:56;2.65;;;2.45;;
67595;SDS011;54410;48.694;8.934;2022-08-01T08:41:22;3.88;;;2.30;;
67595;SDS011;54410;48.694;8.934;2022-08-01T08:43:48;3.17;;;2.05;;
67595;SDS011;54410;48.694;8.934;2022-08-01T08:46:14;2.17;;;1.98;;
67595;SDS011;54410;48.694;8.934;2022-08-01T08:48:40;1.85;;;1.75;;
67595;SDS011;54410;48.694;8.934;2022-08-01T08:51:07;2.30;;;1.90;;
67595;SDS011;54410;48.694;8.934;2022-08-01T08:53:34;3.83;;;1.75;;
67595;SDS011;54410;48.694;8.934;2022-08-01T08:56:01;2.25;;;1.77;;
67595;SDS011;54410;48.694;8.934;2022-08-01T08:58:27;1.90;;;1.80;;
67595;SDS011;54410;48.694;8.934;2022-08-01T09:00:53;3.25;;;1.95;;
67595;SDS011;54410;48.694;8.934;2022-08-01T09:03:19;1.85;;;1.63;;
67595;SDS011;54410;48.694;8.934;2022-08-01T09:05:45;1.50;;;1.40;;
67595;SDS011;54410;48.694;8.934;2022-08-01T09:08:11;1.75;;;1.65;;
67595;SDS011;54410;48.694;8.934;2022-08-01T09:10:37;1.58;;;1.40;;
67595;SDS011;54410;48.694;8.934;2022-08-01T09:13:07;1.95;;;1.40;;
67595;SDS011;54410;48.694;8.934;2022-08-01T09:18:25;2.72;;;1.48;;
67595;SDS011;54410;48.694;8.934;2022-08-01T09:21:11;1.60;;;1.50;;
67595;SDS011;54410;48.694;8.934;2022-08-01T09:23:40;1.95;;;1.75;;
67595;SDS011;54410;48.694;8.934;2022-08-01T09:26:07;3.08;;;1.70;;
67595;SDS011;54410;48.694;8.934;2022-08-01T09:28:38;1.63;;;1.52;;
67595;SDS011;54410;48.694;8.934;2022-08-01T09:31:38;2.45;;;1.90;;
67595;SDS011;54410;48.694;8.934;2022-08-01T09:34:03;3.10;;;2.90;;
67595;SDS011;54410;48.694;8.934;2022-08-01T09:39:20;5.00;;;3.30;;
67595;SDS011;54410;48.694;8.934;2022-08-01T09:41:49;3.20;;;2.90;;
67595;SDS011;54410;48.694;8.934;2022-08-01T09:44:16;2.95;;;2.75;;
67595;SDS011;54410;48.694;8.934;2022-08-01T09:46:49;3.22;;;2.90;;
67595;SDS011;54410;48.694;8.934;2022-08-01T09:49:31;2.80;;;2.60;;
67595;SDS011;54410;48.694;8.934;2022-08-01T09:52:00;3.10;;;2.47;;
67595;SDS011;54410;48.694;8.934;2022-08-01T09:54:58;2.35;;;2.15;;
67595;SDS011;54410;48.694;8.934;2022-08-01T09:57:25;3.53;;;2.83;;
67595;SDS011;54410;48.694;8.934;2022-08-01T09:59:54;3.33;;;2.78;;
67595;SDS011;54410;48.694;8.934;2022-08-01T10:02:28;3.75;;;3.05;;
67595;SDS011;54410;48.694;8.934;2022-08-01T10:04:55;3.65;;;2.92;;
67595;SDS011;54410;48.694;8.934;2022-08-01T10:07:21;3.45;;;2.63;;
67595;SDS011;54410;48.694;8.934;2022-08-01T10:09:47;3.10;;;2.80;;
67595;SDS011;54410;48.694;8.934;2022-08-01T10:12:14;3.95;;;3.00;;
67595;SDS011;54410;48.694;8.934;2022-08-01T10:14:44;2.50;;;2.30;;
67595;SDS011;54410;48.694;8.934;2022-08-01T10:17:13;4.07;;;2.00;;
67595;SDS011;54410;48.694;8.934;2022-08-01T10:19:41;3.03;;;2.25;;
67595;SDS011;54410;48.694;8.934;2022-08-01T10:22:08;6.10;;;2.30;;
67595;SDS011;54410;48.694;8.934;2022-08-01T10:24:38;4.55;;;2.55;;
67595;SDS011;54410;48.694;8.934;2022-08-01T10:27:05;1.90;;;1.80;;
67595;SDS011;54410;48.694;8.934;2022-08-01T10:29:42;2.83;;;1.88;;
67595;SDS011;54410;48.694;8.934;2022-08-01T10:32:12;2.13;;;1.92;;
67595;SDS011;54410;48.694;8.934;2022-08-01T10:34:38;2.10;;;1.90;;
67595;SDS011;54410;48.694;8.934;2022-08-01T10:37:05;2.45;;;2.00;;
67595;SDS011;54410;48.694;8.934;2022-08-01T10:39:31;3.75;;;1.98;;
67595;SDS011;54410;48.694;8.934;2022-08-01T10:41:58;3.42;;;2.45;;
67595;SDS011;54410;48.694;8.934;2022-08-01T10:44:24;3.03;;;2.20;;
67595;SDS011;54410;48.694;8.934;2022-08-01T10:46:52;2.47;;;2.30;;
67595;SDS011;54410;48.694;8.934;2022-08-01T10:49:22;2.90;;;2.40;;
67595;SDS011;54410;48.694;8.934;2022-08-01T10:51:50;2.35;;;2.15;;
67595;SDS011;54410;48.694;8.934;2022-08-01T10:54:16;2.38;;;2.00;;
67595;SDS011;54410;48.694;8.934;2022-08-01T10:56:46;3.13;;;2.40;;
67595;SDS011;54410;48.694;8.934;2022-08-01T10:59:20;2.47;;;2.28;;
67595;SDS011;54410;48.694;8.934;2022-08-01T11:01:55;2.45;;;2.25;;
67595;SDS011;54410;48.694;8.934;2022-08-01T11:04:24;2.20;;;2.10;;
67595;SDS011;54410;48.694;8.934;2022-08-01T11:07:38;2.97;;;2.67;;
67595;SDS011;54410;48.694;8.934;2022-08-01T11:13:05;3.13;;;2.10;;
67595;SDS011;54410;48.694;8.934;2022-08-01T11:15:36;2.40;;;2.20;;
67595;SDS011;54410;48.694;8.934;2022-08-01T11:18:03;3.33;;;2.50;;
67595;SDS011;54410;48.694;8.934;2022-08-01T11:20:31;3.00;;;2.10;;
67595;SDS011;54410;48.694;8.934;2022-08-01T11:28:22;3.47;;;1.90;;
67595;SDS011;54410;48.694;8.934;2022-08-01T11:30:50;3.45;;;2.03;;
67595;SDS011;54410;48.694;8.934;2022-08-01T11:38:35;3.95;;;2.50;;
67595;SDS011;54410;48.694;8.934;2022-08-01T11:49:27;4.53;;;2.22;;
67595;SDS011;54410;48.694;8.934;2022-08-01T11:52:08;2.38;;;2.17;;
67595;SDS011;54410;48.694;8.934;2022-08-01T11:54:39;4.05;;;2.53;;
67595;SDS011;54410;48.694;8.934;2022-08-01T11:57:07;2.25;;;2.03;;
67595;SDS011;54410;48.694;8.934;2022-08-01T11:59:38;2.60;;;2.40;;
67595;SDS011;54410;48.694;8.934;2022-08-01T12:02:31;2.20;;;2.00;;
67595;SDS011;54410;48.694;8.934;2022-08-01T12:05:00;1.85;;;1.63;;
67595;SDS011;54410;48.694;8.934;2022-08-01T12:07:30;2.00;;;1.80;;
67595;SDS011;54410;48.694;8.934;2022-08-01T12:10:06;1.48;;;1.38;;
67595;SDS011;54410;48.694;8.934;2022-08-01T12:12:37;2.53;;;2.03;;
67595;SDS011;54410;48.694;8.934;2022-08-01T12:15:14;3.25;;;2.10;;
67595;SDS011;54410;48.694;8.934;2022-08-01T12:20:07;2.75;;;1.67;;
67595;SDS011;54410;48.694;8.934;2022-08-01T12:22:34;3.53;;;1.92;;
67595;SDS011;54410;48.694;8.934;2022-08-01T12:25:08;4.90;;;2.00;;
67595;SDS011;54410;48.694;8.934;2022-08-01T12:27:35;2.38;;;2.00;;
67595;SDS011;54410;48.694;8.934;2022-08-01T12:30:02;2.97;;;2.10;;
67595;SDS011;54410;48.694;8.934;2022-08-01T12:32:34;2.55;;;2.00;;
67595;SDS011;54410;48.694;8.934;2022-08-01T12:35:05;3.22;;;2.17;;
67595;SDS011;54410;48.694;8.934;2022-08-01T12:37:39;1.90;;;1.80;;
67595;SDS011;54410;48.694;8.934;2022-08-01T12:40:09;3.55;;;1.98;;
67595;SDS011;54410;48.694;8.934;2022-08-01T12:42:38;5.57;;;2.03;;
67595;SDS011;54410;48.694;8.934;2022-08-01T12:45:05;2.60;;;1.85;;
67595;SDS011;54410;48.694;8.934;2022-08-01T12:47:33;2.13;;;1.85;;
67595;SDS011;54410;48.694;8.934;2022-08-01T12:50:01;2.05;;;1.80;;
67595;SDS011;54410;48.694;8.934;2022-08-01T12:52:27;2.35;;;1.77;;
67595;SDS011;54410;48.694;8.934;2022-08-01T12:55:00;1.67;;;1.58;;
67595;SDS011;54410;48.694;8.934;2022-08-01T12:57:33;1.70;;;1.60;;
67595;SDS011;54410;48.694;8.934;2022-08-01T13:00:06;2.65;;;2.45;;
67595;SDS011;54410;48.694;8.934;2022-08-01T13:02:36;5.47;;;1.90;;
67595;SDS011;54410;48.694;8.934;2022-08-01T13:05:04;2.80;;;1.75;;
67595;SDS011;54410;48.694;8.934;2022-08-01T13:07:36;2.10;;;1.90;;
67595;SDS011;54410;48.694;8.934;2022-08-01T13:10:14;2.92;;;1.85;;
67595;SDS011;54410;48.694;8.934;2022-08-01T13:12:40;3.22;;;1.90;;
67595;SDS011;54410;48.694;8.934;2022-08-01T13:15:19;1.98;;;1.88;;
67595;SDS011;54410;48.694;8.934;2022-08-01T13:17:50;2.42;;;1.95;;
67595;SDS011;54410;48.694;8.934;2022-08-01T13:23:09;2.47;;;1.73;;
67595;SDS011;54410;48.694;8.934;2022-08-01T13:25:45;2.72;;;1.70;;
67595;SDS011;54410;48.694;8.934;2022-08-01T13:28:16;3.33;;;2.03;;
67595;SDS011;54410;48.694;8.934;2022-08-01T13:33:21;2.22;;;1.92;;
67595;SDS011;54410;48.694;8.934;2022-08-01T13:35:48;3.28;;;2.33;;
67595;SDS011;54410;48.694;8.934;2022-08-01T13:38:15;3.30;;;2.80;;
67595;SDS011;54410;48.694;8.934;2022-08-01T13:40:41;2.67;;;2.38;;
67595;SDS011;54410;48.694;8.934;2022-08-01T13:43:07;2.92;;;2.22;;
67595;SDS011;54410;48.694;8.934;2022-08-01T13:45:34;4.78;;;2.45;;
67595;SDS011;54410;48.694;8.934;2022-08-01T13:47:59;3.65;;;2.28;;
67595;SDS011;54410;48.694;8.934;2022-08-01T13:50:25;4.57;;;2.38;;
67595;SDS011;54410;48.694;8.934;2022-08-01T13:52:51;2.17;;;1.98;;
67595;SDS011;54410;48.694;8.934;2022-08-01T13:55:17;3.97;;;2.30;;
67595;SDS011;54410;48.694;8.934;2022-08-01T13:57:43;2.30;;;2.10;;
67595;SDS011;54410;48.694;8.934;2022-08-01T14:00:09;2.30;;;2.20;;
67595;SDS011;54410;48.694;8.934;2022-08-01T14:02:35;3.30;;;2.45;;
67595;SDS011;54410;48.694;8.934;2022-08-01T14:05:02;2.55;;;2.20;;
67595;SDS011;54410;48.694;8.934;2022-08-01T14:07:28;3.17;;;2.00;;
67595;SDS011;54410;48.694;8.934;2022-08-01T14:09:54;3.22;;;2.35;;
67595;SDS011;54410;48.694;8.934;2022-08-01T14:12:20;2.92;;;2.22;;
67595;SDS011;54410;48.694;8.934;2022-08-01T14:14:46;3.55;;;2.10;;
67595;SDS011;54410;48.694;8.934;2022-08-01T14:17:12;3.95;;;2.50;;
67595;SDS011;54410;48.694;8.934;2022-08-01T14:19:37;3.85;;;2.25;;
67595;SDS011;54410;48.694;8.934;2022-08-01T14:22:03;2.75;;;1.85;;
67595;SDS011;54410;48.694;8.934;2022-08-01T14:24:29;2.72;;;1.70;;
67595;SDS011;54410;48.694;8.934;2022-08-01T14:26:55;4.90;;;2.00;;
67595;SDS011;54410;48.694;8.934;2022-08-01T14:29:21;5.45;;;2.08;;
67595;SDS011;54410;48.694;8.934;2022-08-01T14:31:47;4.18;;;2.15;;
67595;SDS011;54410;48.694;8.934;2022-08-01T14:34:13;2.08;;;1.95;;
67595;SDS011;54410;48.694;8.934;2022-08-01T14:36:40;3.67;;;2.05;;
67595;SDS011;54410;48.694;8.934;2022-08-01T14:39:06;2.10;;;1.88;;
67595;SDS011;54410;48.694;8.934;2022-08-01T14:41:32;5.75;;;2.20;;
67595;SDS011;54410;48.694;8.934;2022-08-01T14:43:58;2.63;;;2.30;;
67595;SDS011;54410;48.694;8.934;2022-08-01T14:46:24;4.75;;;2.00;;
67595;SDS011;54410;48.694;8.934;2022-08-01T14:48:50;4.45;;;2.05;;
67595;SDS011;54410;48.694;8.934;2022-08-01T14:51:16;3.20;;;2.38;;
67595;SDS011;54410;48.694;8.934;2022-08-01T14:53:42;3.92;;;3.50;;
67595;SDS011;54410;48.694;8.934;2022-08-01T14:56:08;2.08;;;1.73;;
67595;SDS011;54410;48.694;8.934;2022-08-01T14:58:34;4.28;;;2.00;;
67595;SDS011;54410;48.694;8.934;2022-08-01T15:01:00;4.72;;;2.30;;
67595;SDS011;54410;48.694;8.934;2022-08-01T15:03:26;2.38;;;1.92;;
67595;SDS011;54410;48.694;8.934;2022-08-01T15:05:52;1.92;;;1.77;;
67595;SDS011;54410;48.694;8.934;2022-08-01T15:08:18;3.85;;;2.10;;
67595;SDS011;54410;48.694;8.934;2022-08-01T15:10:44;3.33;;;2.25;;
67595;SDS011;54410;48.694;8.934;2022-08-01T15:13:10;2.42;;;2.20;;
67595;SDS011;54410;48.694;8.934;2022-08-01T15:15:36;1.98;;;1.80;;
67595;SDS011;54410;48.694;8.934;2022-08-01T15:18:01;2.50;;;1.67;;
67595;SDS011;54410;48.694;8.934;2022-08-01T15:20:27;2.15;;;1.70;;
67595;SDS011;54410;48.694;8.934;2022-08-01T15:22:54;2.33;;;2.13;;
67595;SDS011;54410;48.694;8.934;2022-08-01T15:25:19;1.88;;;1.65;;
67595;SDS011;54410;48.694;8.934;2022-08-01T15:27:45;3.60;;;1.98;;
67595;SDS011;54410;48.694;8.934;2022-08-01T15:30:11;2.33;;;2.13;;
67595;SDS011;54410;48.694;8.934;2022-08-01T15:32:37;2.55;;;1.90;;
67595;SDS011;54410;48.694;8.934;2022-08-01T15:35:03;2.92;;;1.70;;
67595;SDS011;54410;48.694;8.934;2022-08-01T15:37:31;6.68;;;1.70;;
67595;SDS011;54410;48.694;8.934;2022-08-01T15:39:57;1.92;;;1.63;;
67595;SDS011;54410;48.694;8.934;2022-08-01T15:42:22;3.65;;;1.90;;
67595;SDS011;54410;48.694;8.934;2022-08-01T15:44:48;2.67;;;1.85;;